Time;durP1;ratioP1;P1;durP2;ratioP2;P2;SDS_P1;SDS_P2;PMS_P1;PMS_P2;Temp;Humidity;BMP_temperature;BMP_pressure;BME280_temperature;BME280_humidity;BME280_pressure;Samples;Min_cycle;Max_cycle;Signal;HPM_P1;HPM_P2
2021/11/01 00:01:52;;;;;;;40.25;23.90;;;;;;;8.47;60.64;99352.39;2122679;83;27646;-72
2021/11/01 00:04:54;;;;;;;24.63;16.80;;;;;;;8.43;60.65;99352.66;2161220;82;29461;-73
2021/11/01 00:07:56;;;;;;;24.67;15.90;;;;;;;8.40;60.90;99349.67;2175631;80;32562;-67
2021/11/01 00:10:58;;;;;;;19.70;13.55;;;;;;;8.35;60.85;99339.75;2158937;82;33328;-69
2021/11/01 00:14:00;;;;;;;19.55;13.98;;;;;;;8.32;61.33;99342.09;2158845;82;29335;-74
2021/11/01 00:17:03;;;;;;;21.95;14.58;;;;;;;8.31;61.41;99353.71;2159282;82;27716;-69
2021/11/01 00:20:07;;;;;;;22.48;13.75;;;;;;;8.29;61.51;99352.94;2161623;80;29431;-69
2021/11/01 00:23:14;;;;;;;19.37;14.10;;;;;;;8.31;61.64;99351.53;2161210;82;31035;-73
2021/11/01 00:26:16;;;;;;;22.00;13.98;;;;;;;8.32;61.83;99349.25;2118923;83;33791;-73
2021/11/01 00:29:17;;;;;;;19.55;12.85;;;;;;;8.33;61.88;99348.31;2146427;82;30675;-73
2021/11/01 00:32:19;;;;;;;19.02;14.00;;;;;;;8.35;61.90;99355.27;2153064;81;27677;-72
2021/11/01 00:35:22;;;;;;;20.95;14.13;;;;;;;8.38;61.90;99349.38;2153046;82;29958;-74
2021/11/01 00:38:24;;;;;;;22.07;13.68;;;;;;;8.36;61.90;99344.98;2127851;82;31202;-72
2021/11/01 00:41:25;;;;;;;22.52;14.07;;;;;;;8.37;61.99;99344.50;2089755;85;33904;-74
2021/11/01 00:44:27;;;;;;;18.23;13.72;;;;;;;8.36;61.75;99338.31;2119054;83;30633;-74
2021/11/01 00:47:29;;;;;;;20.82;13.13;;;;;;;8.33;61.99;99331.81;2114335;83;27674;-73
2021/11/01 00:50:34;;;;;;;21.40;12.63;;;;;;;8.33;62.06;99320.29;2110769;83;29268;-73
2021/11/01 00:53:37;;;;;;;17.90;12.83;;;;;;;8.32;62.19;99321.23;2125348;83;31649;-71
2021/11/01 00:56:39;;;;;;;20.55;13.72;;;;;;;8.30;62.39;99313.78;2117471;83;33882;-62
2021/11/01 00:59:41;;;;;;;23.47;15.23;;;;;;;8.27;62.33;99308.16;2114077;84;29715;-71
2021/11/01 01:02:45;;;;;;;23.45;14.45;;;;;;;8.27;62.41;99301.48;2113865;84;27632;-70
2021/11/01 01:05:47;;;;;;;26.87;14.70;;;;;;;8.27;62.38;99297.94;2117733;83;28819;-70
2021/11/01 01:08:49;;;;;;;23.25;14.35;;;;;;;8.25;62.76;99288.70;2164136;81;31892;-71
2021/11/01 01:11:51;;;;;;;23.98;15.23;;;;;;;8.25;62.75;99286.48;2157911;82;34026;-71
2021/11/01 01:14:58;;;;;;;21.57;14.60;;;;;;;8.21;62.74;99272.47;2162645;82;30667;-72
2021/11/01 01:18:06;;;;;;;20.30;13.13;;;;;;;8.19;62.79;99269.87;2143230;82;27695;-71
2021/11/01 01:24:29;;;;;;;22.07;16.12;;;;;;;8.16;62.97;99272.73;2157858;82;30851;-62
2021/11/01 01:27:31;;;;;;;25.15;15.30;;;;;;;8.14;62.83;99269.29;2141923;82;32948;-63
2021/11/01 01:30:35;;;;;;;20.92;13.65;;;;;;;8.13;63.03;99274.69;2164701;81;29988;-63
2021/11/01 01:33:37;;;;;;;22.95;14.93;;;;;;;8.13;62.85;99272.03;2158613;82;27726;-62
2021/11/01 01:36:39;;;;;;;21.35;15.18;;;;;;;8.12;62.68;99275.64;2151321;82;29539;-62
2021/11/01 01:39:41;;;;;;;21.25;13.25;;;;;;;8.08;62.55;99272.78;2160079;82;31078;-62
2021/11/01 01:42:44;;;;;;;20.62;14.13;;;;;;;8.00;62.45;99274.05;2119623;84;32976;-62
2021/11/01 01:45:46;;;;;;;22.87;12.93;;;;;;;7.91;62.55;99274.09;2119180;83;30515;-62
2021/11/01 01:48:49;;;;;;;19.70;14.60;;;;;;;7.83;62.43;99265.67;2119696;83;27582;-62
2021/11/01 01:51:53;;;;;;;22.70;15.65;;;;;;;7.73;62.48;99265.77;2123624;82;29468;-62
2021/11/01 01:54:55;;;;;;;22.15;15.13;;;;;;;7.61;62.56;99271.31;2104294;83;31064;-73
2021/11/01 01:57:58;;;;;;;23.98;15.63;;;;;;;7.51;62.53;99263.41;2080743;85;32868;-71
2021/11/01 02:01:09;;;;;;;33.45;21.68;;;;;;;7.40;62.65;99262.20;2095382;85;30215;-67
2021/11/01 02:04:10;;;;;;;33.55;19.75;;;;;;;7.27;62.69;99261.98;2096328;83;28219;-65
2021/11/01 02:07:35;;;;;;;27.13;18.25;;;;;;;7.18;62.88;99258.94;2129795;83;29837;-62
2021/11/01 02:10:42;;;;;;;35.98;20.85;;;;;;;7.09;62.84;99249.62;2119220;84;32240;-69
2021/11/01 02:13:47;;;;;;;33.98;20.95;;;;;;;6.95;62.91;99252.54;2122561;82;32957;-72
2021/11/01 02:16:50;;;;;;;35.43;21.73;;;;;;;6.84;63.05;99246.91;2159308;82;35292;-78
2021/11/01 02:19:55;;;;;;;41.68;23.42;;;;;;;6.77;63.14;99248.16;2159536;82;28263;-64
2021/11/01 02:23:17;;;;;;;40.03;22.40;;;;;;;6.68;63.28;99245.48;2090411;83;29497;-61
2021/11/01 02:26:23;;;;;;;44.73;25.05;;;;;;;6.55;63.42;99234.59;2171709;80;31417;-62
2021/11/01 02:29:26;;;;;;;43.20;24.35;;;;;;;6.44;63.82;99219.20;2209950;80;33243;-61
2021/11/01 02:32:28;;;;;;;41.35;23.98;;;;;;;6.37;63.68;99229.73;2175283;80;29356;-61
2021/11/01 02:35:30;;;;;;;42.30;24.00;;;;;;;6.25;63.67;99214.39;2154999;82;27550;-61
2021/11/01 02:38:32;;;;;;;39.85;23.25;;;;;;;6.23;63.99;99217.11;2155060;82;28385;-63
2021/11/01 02:41:34;;;;;;;40.05;23.27;;;;;;;6.17;64.09;99222.27;2154295;82;31641;-61
2021/11/01 02:44:36;;;;;;;36.75;22.50;;;;;;;6.14;64.15;99226.88;2115829;83;34194;-61
2021/11/01 02:47:38;;;;;;;31.52;21.05;;;;;;;6.08;64.44;99233.36;2126688;82;29712;-61
2021/11/01 02:50:41;;;;;;;32.85;21.20;;;;;;;6.03;64.52;99235.38;2155018;82;28042;-62
2021/11/01 02:53:46;;;;;;;37.50;21.30;;;;;;;5.98;64.51;99233.36;2141968;82;28794;-64
2021/11/01 02:56:48;;;;;;;37.55;20.72;;;;;;;5.91;64.93;99228.81;2108236;84;32256;-61
2021/11/01 02:59:50;;;;;;;31.70;19.42;;;;;;;5.85;64.81;99211.36;2106186;84;34051;-61
2021/11/01 03:02:52;;;;;;;26.25;18.00;;;;;;;5.84;65.13;99220.27;2074428;85;29776;-63
2021/11/01 03:05:55;;;;;;;29.30;18.80;;;;;;;5.83;65.20;99219.03;2087851;85;27647;-63
2021/11/01 03:08:57;;;;;;;26.12;17.40;;;;;;;5.80;65.45;99222.67;2122147;83;28606;-61
2021/11/01 03:12:05;;;;;;;30.05;17.35;;;;;;;5.79;65.53;99213.00;2134294;83;31006;-61
2021/11/01 03:15:11;;;;;;;29.48;17.87;;;;;;;5.78;65.68;99218.77;2154672;82;33058;-61
2021/11/01 03:18:13;;;;;;;25.45;17.02;;;;;;;5.76;66.09;99203.84;2133698;82;30067;-61
2021/11/01 03:21:17;;;;;;;22.50;15.75;;;;;;;5.77;66.84;99197.59;2154521;82;27621;-63
2021/11/01 03:24:19;;;;;;;22.15;15.65;;;;;;;5.87;67.95;99180.75;2155259;82;28641;-61
2021/11/01 03:27:21;;;;;;;22.00;15.55;;;;;;;6.10;68.94;99183.64;2149492;82;31110;-63
2021/11/01 03:30:24;;;;;;;25.37;16.50;;;;;;;6.38;68.64;99201.72;2077187;84;33320;-63
2021/11/01 03:33:37;;;;;;;24.02;14.68;;;;;;;6.55;68.09;99198.67;2124111;83;29626;-62
2021/11/01 03:36:36;;;;;;;20.85;14.15;;;;;;;6.71;68.39;99195.22;2145588;82;27618;-62
2021/11/01 03:39:42;;;;;;;21.90;15.83;;;;;;;6.84;68.06;99177.22;2102696;84;28099;-62
2021/11/01 03:42:45;;;;;;;24.50;15.35;;;;;;;6.95;67.99;99186.45;2082559;85;32069;-65
2021/11/01 03:45:47;;;;;;;26.02;16.40;;;;;;;7.08;67.68;99202.63;2192412;81;32972;-62
2021/11/01 03:48:49;;;;;;;24.85;15.23;;;;;;;7.13;67.57;99201.44;2200714;80;29456;-62
2021/11/01 03:52:06;;;;;;;27.25;15.88;;;;;;;7.19;67.53;99185.63;2206482;80;27660;-62
2021/11/01 03:54:55;;;;;;;26.07;16.10;;;;;;;7.23;67.51;99163.67;2204920;80;28661;-62
2021/11/01 03:57:59;;;;;;;22.07;15.75;;;;;;;7.25;67.30;99163.96;2182588;80;32154;-61
2021/11/01 04:01:01;;;;;;;22.58;15.88;;;;;;;7.28;67.17;99172.28;2187259;81;32964;-63
2021/11/01 04:04:04;;;;;;;22.62;15.35;;;;;;;7.30;67.08;99171.24;2166086;82;29339;-69
2021/11/01 04:07:07;;;;;;;22.32;16.00;;;;;;;7.33;67.20;99169.36;2179185;80;27674;-67
2021/11/01 04:10:09;;;;;;;25.45;15.80;;;;;;;7.36;67.18;99173.19;2173036;80;29469;-68
2021/11/01 04:13:11;;;;;;;20.30;15.18;;;;;;;7.37;67.10;99162.44;2189282;81;31037;-70
2021/11/01 04:16:15;;;;;;;24.02;15.93;;;;;;;7.37;66.91;99162.44;2179662;81;33116;-61
2021/11/01 04:22:18;;;;;;;23.15;14.18;;;;;;;7.37;66.73;99170.88;2191561;81;27748;-71
2021/11/01 04:25:22;;;;;;;22.15;15.38;;;;;;;7.35;66.59;99175.47;2195043;80;29006;-64
2021/11/01 04:28:24;;;;;;;22.57;15.20;;;;;;;7.32;66.55;99175.14;2200162;80;31002;-66
2021/11/01 04:31:31;;;;;;;22.05;15.75;;;;;;;7.27;66.44;99162.08;2191709;80;33646;-65
2021/11/01 04:34:35;;;;;;;20.62;15.15;;;;;;;7.21;66.26;99170.39;2181854;80;30136;-69
2021/11/01 04:37:37;;;;;;;24.45;16.37;;;;;;;7.14;66.29;99160.55;2184647;80;27750;-68
2021/11/01 04:40:53;;;;;;;26.23;16.15;;;;;;;7.06;66.57;99152.12;2191937;81;28242;-70
2021/11/01 04:53:53;;;;;;;22.30;16.75;;;;;;;6.97;67.62;99155.26;2177395;81;28207;-62
2021/11/01 04:56:55;;;;;;;24.57;15.95;;;;;;;6.99;67.80;99152.92;2169174;81;28715;-63
2021/11/01 04:59:57;;;;;;;27.27;17.20;;;;;;;7.04;68.24;99142.02;2177451;81;31872;-62
2021/11/01 05:03:08;;;;;;;25.60;15.83;;;;;;;7.10;68.14;99127.05;2160731;81;34185;-62
2021/11/01 05:06:06;;;;;;;20.90;15.72;;;;;;;7.18;68.55;99135.95;2165579;81;29281;-62
2021/11/01 05:09:15;;;;;;;25.00;16.75;;;;;;;7.29;68.60;99136.67;2182082;81;27596;-62
2021/11/01 05:12:36;;;;;;;22.98;15.85;;;;;;;7.40;68.69;99126.77;2174940;80;28667;-72
2021/11/01 05:22:07;;;;;;;28.73;15.58;;;;;;;7.62;68.34;99127.75;2125580;83;27989;-63
2021/11/01 05:25:16;;;;;;;23.05;15.53;;;;;;;7.66;68.40;99116.46;2131277;83;27713;-65
2021/11/01 05:28:26;;;;;;;21.10;15.55;;;;;;;7.72;68.29;99112.09;2114089;84;30143;-71
2021/11/01 05:31:24;;;;;;;22.50;14.98;;;;;;;7.77;68.29;99114.52;2119162;82;30632;-67
2021/11/01 05:34:25;;;;;;;20.25;15.55;;;;;;;7.81;68.31;99110.25;2139573;83;32925;-66
2021/11/01 05:37:27;;;;;;;25.92;16.85;;;;;;;7.86;68.19;99122.82;2126068;83;30739;-62
2021/11/01 05:40:29;;;;;;;23.67;16.50;;;;;;;7.92;67.98;99122.97;2133910;82;27657;-64
2021/11/01 05:43:31;;;;;;;24.40;16.20;;;;;;;7.98;68.07;99121.75;2126911;83;29947;-63
2021/11/01 05:46:38;;;;;;;23.12;15.13;;;;;;;8.04;67.98;99126.25;2129883;82;31360;-63
2021/11/01 05:49:40;;;;;;;25.97;17.02;;;;;;;8.10;68.01;99126.84;2148455;82;33490;-63
2021/11/01 05:52:43;;;;;;;28.57;16.80;;;;;;;8.15;67.77;99131.42;2156727;82;29690;-68
2021/11/01 05:55:59;;;;;;;25.75;17.35;;;;;;;8.18;67.65;99131.25;2155677;82;27748;-63
2021/11/01 06:15:24;;;;;;;23.05;16.95;;;;;;;8.17;67.37;99129.52;2017257;87;29904;-63
2021/11/01 06:18:35;;;;;;;25.35;17.57;;;;;;;8.20;67.50;99123.52;1972535;90;31166;-64
2021/11/01 06:21:29;;;;;;;31.80;17.82;;;;;;;8.26;67.51;99131.67;1971861;90;32980;-62
2021/11/01 06:27:47;;;;;;;23.15;16.62;;;;;;;8.40;67.41;99135.32;1922248;92;27795;-63
2021/11/01 06:31:01;;;;;;;25.10;16.32;;;;;;;8.47;67.36;99141.53;1922133;92;28670;-63
2021/11/01 06:34:20;;;;;;;26.02;16.95;;;;;;;8.57;67.18;99147.67;1957410;88;31879;-65
2021/11/01 06:40:43;;;;;;;29.07;19.15;;;;;;;8.73;66.97;99140.95;2129184;82;30339;-63
2021/11/01 06:44:00;;;;;;;27.30;18.10;;;;;;;8.81;66.89;99146.20;2138017;83;27759;-64
2021/11/01 06:50:35;;;;;;;22.27;15.08;;;;;;;8.97;66.58;99157.28;2213861;80;31963;-63
2021/11/01 07:19:58;;;;;;;20.88;16.02;;;;;;;10.94;64.62;99158.77;2202846;80;29303;-63
2021/11/01 09:21:36;;;;;;;19.02;13.15;;;;;;;16.05;53.74;99112.26;2049349;86;34307;-65
2021/11/01 09:27:39;;;;;;;16.32;12.30;;;;;;;16.30;53.19;99119.44;2143110;82;27718;-67
2021/11/01 09:43:49;;;;;;;20.02;10.05;;;;;;;16.56;50.67;99126.98;2181767;81;27788;-67
2021/11/01 09:46:49;;;;;;;14.37;9.10;;;;;;;16.54;50.47;99124.91;2136212;81;29993;-71
2021/11/01 09:49:52;;;;;;;11.97;9.65;;;;;;;16.59;50.87;99126.69;2123538;83;31024;-68
2021/11/01 09:52:59;;;;;;;12.98;9.65;;;;;;;16.66;50.24;99134.56;2143050;83;34176;-76
2021/11/01 09:59:12;;;;;;;11.45;9.60;;;;;;;16.66;49.65;99132.37;2144922;83;27625;-77
2021/11/01 10:02:18;;;;;;;11.75;8.75;;;;;;;16.68;49.69;99126.33;2144774;83;28826;-73
2021/11/01 10:05:25;;;;;;;13.93;10.32;;;;;;;16.67;49.77;99121.40;2143737;83;31005;-74
2021/11/01 10:08:30;;;;;;;14.87;10.20;;;;;;;16.72;49.60;99125.02;2114509;83;32976;-67
2021/11/01 10:11:39;;;;;;;21.45;10.72;;;;;;;16.75;49.68;99122.54;2144844;83;29326;-69
2021/11/01 10:14:53;;;;;;;14.38;9.85;;;;;;;16.76;49.59;99114.27;2140372;82;28265;-69
2021/11/01 10:18:04;;;;;;;12.35;9.93;;;;;;;16.79;49.23;99120.75;2115332;81;29505;-66
2021/11/01 10:21:06;;;;;;;17.67;10.68;;;;;;;16.83;49.29;99128.06;2119073;83;31079;-68
2021/11/01 10:24:08;;;;;;;13.08;9.63;;;;;;;16.86;49.61;99124.59;2118349;82;33971;-67
2021/11/01 10:27:15;;;;;;;11.45;8.83;;;;;;;16.90;48.68;99120.21;2123315;82;29747;-74
2021/11/01 10:30:29;;;;;;;12.78;9.83;;;;;;;16.92;48.81;99120.92;2125465;82;28411;-64
2021/11/01 10:33:34;;;;;;;12.23;9.77;;;;;;;16.95;48.88;99118.83;2113813;82;29110;-66
2021/11/01 10:36:39;;;;;;;15.35;9.43;;;;;;;16.98;48.69;99122.57;2130943;82;31102;-66
2021/11/01 10:39:40;;;;;;;11.60;8.78;;;;;;;17.04;48.52;99118.94;2117769;82;32944;-64
2021/11/01 10:42:46;;;;;;;11.45;9.13;;;;;;;17.06;48.22;99117.77;2131912;82;29784;-66
2021/11/01 11:12:18;;;;;;;14.65;9.18;;;;;;;17.26;46.45;99110.46;2012473;88;33671;-65
2021/11/01 11:15:15;;;;;;;11.60;9.90;;;;;;;17.12;46.65;99092.00;2009352;88;29371;-63
2021/11/01 11:18:46;;;;;;;11.68;8.63;;;;;;;17.26;46.33;99119.94;2029495;87;27788;-64
2021/11/01 11:22:05;;;;;;;11.38;8.90;;;;;;;17.26;46.33;99119.94;2027516;87;28615;-68
2021/11/01 11:48:31;;;;;;;13.83;9.75;;;;;;;17.28;45.92;99103.53;2115632;82;29284;-64
2021/11/01 11:51:28;;;;;;;10.58;8.68;;;;;;;17.28;45.92;99103.53;2139610;82;27778;-65
2021/11/01 11:54:46;;;;;;;15.55;9.95;;;;;;;17.27;45.65;99093.22;2145454;82;30038;-63
2021/11/01 11:58:05;;;;;;;12.58;8.68;;;;;;;17.26;45.35;99102.34;2120359;82;32065;-63
2021/11/01 12:01:33;;;;;;;13.85;9.40;;;;;;;17.19;45.34;99078.21;2128735;82;33010;-64
2021/11/01 12:04:49;;;;;;;18.27;13.83;;;;;;;17.27;45.33;99097.77;2132689;82;30339;-59
2021/11/01 12:08:21;;;;;;;12.18;9.03;;;;;;;17.28;45.65;99101.70;2126521;82;27634;-64
2021/11/01 12:11:32;;;;;;;12.40;8.90;;;;;;;17.30;45.26;99104.23;2133040;82;30871;-65
2021/11/01 12:17:36;;;;;;;16.25;9.13;;;;;;;17.35;44.88;99099.72;2124704;82;33022;-63
2021/11/01 12:20:40;;;;;;;15.63;9.35;;;;;;;17.35;44.51;99087.55;2135623;82;30625;-65
2021/11/01 12:23:44;;;;;;;10.50;8.18;;;;;;;17.37;44.93;99093.18;2119473;83;27837;-64
2021/11/01 12:26:46;;;;;;;9.90;8.13;;;;;;;17.37;44.65;99091.83;2101729;82;29160;-65
2021/11/01 12:29:52;;;;;;;12.10;8.78;;;;;;;17.37;44.48;99091.83;2177975;79;31450;-67
2021/11/01 12:32:56;;;;;;;11.70;8.33;;;;;;;17.38;44.58;99085.38;2187133;79;32988;-65
2021/11/01 12:36:06;;;;;;;11.30;8.40;;;;;;;17.37;44.32;99081.00;2140042;82;29394;-64
2021/11/01 12:49:18;;;;;;;11.03;8.20;;;;;;;17.32;44.20;99069.75;2114666;82;34241;-64
2021/11/01 12:59:02;;;;;;;13.85;9.58;;;;;;;17.26;44.01;99068.50;2113690;82;29892;-63
2021/11/01 13:02:04;;;;;;;9.58;8.53;;;;;;;17.22;44.03;99065.73;2119228;82;32000;-64
2021/11/01 13:05:23;;;;;;;12.05;8.93;;;;;;;17.21;44.09;99063.20;2122895;82;33770;-62
2021/11/01 13:08:31;;;;;;;12.78;8.88;;;;;;;17.22;44.16;99066.22;2123163;82;29337;-64
2021/11/01 13:21:17;;;;;;;13.72;9.88;;;;;;;17.14;44.75;99069.68;2095374;83;33553;-64
2021/11/01 13:24:19;;;;;;;12.82;9.28;;;;;;;17.10;44.77;99071.00;2100546;83;29805;-64
2021/11/01 13:27:37;;;;;;;13.62;10.03;;;;;;;17.05;45.02;99072.77;2101540;83;27725;-61
2021/11/01 13:34:47;;;;;;;13.50;10.20;;;;;;;16.98;45.26;99064.92;2122861;81;31068;-62
2021/11/01 13:37:33;;;;;;;11.38;10.13;;;;;;;16.94;45.44;99066.17;2102798;82;33999;-62
2021/11/01 13:40:45;;;;;;;18.80;10.20;;;;;;;16.89;45.54;99066.62;2148845;82;28792;-62
2021/11/01 13:43:47;;;;;;;14.80;10.08;;;;;;;16.68;45.73;99042.50;2134002;82;27738;-56
2021/11/01 13:46:52;;;;;;;15.90;11.65;;;;;;;16.68;45.73;99042.50;2129044;82;29141;-61
2021/11/01 13:49:54;;;;;;;18.52;11.12;;;;;;;16.75;45.75;99062.53;2136640;82;31007;-63
2021/11/01 13:53:13;;;;;;;15.70;11.18;;;;;;;16.71;45.86;99053.86;2120026;82;33101;-60
2021/11/01 13:56:25;;;;;;;13.68;10.85;;;;;;;16.67;45.96;99055.15;2096228;83;30656;-57
2021/11/01 13:59:37;;;;;;;12.10;10.78;;;;;;;16.61;46.05;99047.64;2100807;83;27689;-61
2021/11/01 14:03:01;;;;;;;12.35;9.93;;;;;;;16.54;46.12;99050.56;2097666;83;28713;-62
2021/11/01 14:12:40;;;;;;;16.52;12.65;;;;;;;16.38;46.63;99055.23;2107851;83;29536;-59
2021/11/01 14:35:16;;;;;;;31.50;17.90;;;;;;;15.69;47.68;99059.74;2162015;80;29853;-63
2021/11/01 14:58:35;;;;;;;25.50;16.60;;;;;;;14.75;48.48;99063.05;2164539;81;33717;-64
2021/11/01 15:05:46;;;;;;;23.40;16.20;;;;;;;14.47;48.84;99063.20;2164712;81;27706;-63
2021/11/01 15:11:28;;;;;;;22.07;15.88;;;;;;;14.16;49.27;99061.27;2161869;80;32266;-64
2021/11/01 15:14:19;;;;;;;26.60;16.15;;;;;;;14.00;49.46;99063.08;2156165;80;33344;-64
2021/11/01 15:17:21;;;;;;;31.67;20.73;;;;;;;13.85;49.57;99065.70;2166832;80;29393;-65
2021/11/01 16:16:39;;;;;;;79.95;44.67;;;;;;;11.02;53.80;99077.83;2069864;85;32242;-62
2021/11/01 16:19:21;;;;;;;;;;;;;;;10.88;54.18;99077.45;2059763;86;33991;-61
2021/11/01 16:22:24;;;;;;;77.45;42.38;;;;;;;10.75;54.35;99084.66;1996654;88;52613;-63
2021/11/01 16:25:26;;;;;;;84.25;44.23;;;;;;;10.59;54.66;99087.06;2022423;86;27734;-63
2021/11/01 16:28:32;;;;;;;79.62;46.92;;;;;;;10.49;54.67;99083.31;2069433;86;28670;-61
2021/11/01 16:31:53;;;;;;;72.58;40.38;;;;;;;10.39;55.05;99085.77;2070533;86;34535;-62
2021/11/01 16:34:57;;;;;;;67.17;38.40;;;;;;;10.28;55.12;99088.27;2111680;83;34194;-65
2021/11/01 16:38:11;;;;;;;61.35;35.48;;;;;;;10.16;55.28;99087.31;2078647;84;29343;-63
2021/11/01 16:41:10;;;;;;;52.43;33.08;;;;;;;10.06;55.58;99087.06;2104835;84;27755;-62
2021/11/01 16:47:20;;;;;;;54.20;33.40;;;;;;;9.87;55.90;99090.97;2082615;84;31020;-62
2021/11/01 16:50:22;;;;;;;69.42;36.53;;;;;;;9.78;56.27;99098.25;2078407;84;33620;-66
2021/11/01 16:53:25;;;;;;;57.78;36.25;;;;;;;9.70;56.53;99093.89;2104554;82;30479;-66
2021/11/01 16:56:46;;;;;;;69.87;41.10;;;;;;;9.62;56.77;99092.19;2094724;84;28116;-65
2021/11/01 17:02:53;;;;;;;;;;;;;;;9.48;57.18;99091.77;2119043;82;30909;-62
2021/11/01 17:06:00;;;;;;;68.72;40.35;;;;;;;9.40;57.63;99089.59;2079826;84;33055;-60
2021/11/01 17:25:55;;;;;;;77.15;44.20;;;;;;;8.93;59.02;99088.52;2093128;83;29414;-62
2021/11/01 17:28:50;;;;;;;74.97;44.23;;;;;;;8.87;59.06;99091.55;2092644;83;27690;-60
2021/11/01 17:35:27;;;;;;;130.18;73.57;;;;;;;8.75;59.18;99090.98;2090775;83;31045;-58
2021/11/01 18:38:51;;;;;;;99.10;56.37;;;;;;;8.06;62.85;99113.69;2085704;84;30028;-62
2021/11/01 18:41:41;;;;;;;97.30;56.02;;;;;;;8.12;62.88;99115.13;2053903;85;31282;-65
2021/11/01 18:51:34;;;;;;;95.87;59.03;;;;;;;8.34;63.40;99120.54;2049431;85;27802;-66
2021/11/01 18:54:41;;;;;;;88.25;53.83;;;;;;;8.41;63.51;99113.86;2059357;85;28700;-66
2021/11/01 18:57:46;;;;;;;89.80;54.00;;;;;;;8.51;64.26;99119.55;2036800;85;31285;-66
2021/11/01 19:00:47;;;;;;;96.02;52.20;;;;;;;8.60;63.89;99118.13;2071078;84;33008;-65
2021/11/01 19:03:53;;;;;;;106.67;58.02;;;;;;;8.68;64.25;99107.86;2064916;84;30537;-67
2021/11/01 19:07:05;;;;;;;99.55;56.58;;;;;;;8.76;64.46;99116.24;2068491;84;27702;-59
2021/11/01 19:10:13;;;;;;;106.72;60.52;;;;;;;8.85;64.41;99115.31;2065860;84;28786;-63
2021/11/01 20:04:04;;;;;;;141.90;80.05;;;;;;;9.97;65.29;99103.25;2062243;85;31608;-59
2021/11/01 20:16:53;;;;;;;107.50;60.78;;;;;;;10.07;65.34;99097.27;2057177;85;29129;-60
2021/11/01 21:27:05;;;;;;;70.97;44.73;;;;;;;10.44;66.92;99047.96;1982963;88;32249;-62
2021/11/01 21:30:11;;;;;;;77.32;47.05;;;;;;;10.47;67.01;99041.91;1987577;88;33433;-62
2021/11/01 21:33:21;;;;;;;70.57;45.33;;;;;;;10.49;67.06;99043.16;1964390;88;27774;-61
2021/11/01 21:36:24;;;;;;;72.67;43.25;;;;;;;10.52;67.10;99035.38;1998141;84;27840;-61
2021/11/01 21:39:25;;;;;;;76.75;47.70;;;;;;;10.54;67.06;99038.81;2089694;82;29880;-61
2021/11/01 21:42:29;;;;;;;74.17;46.60;;;;;;;10.54;67.04;99042.33;2136455;82;31004;-62
2021/11/01 21:45:31;;;;;;;68.28;43.58;;;;;;;10.56;66.93;99043.08;2143682;82;33051;-64
2021/11/01 21:48:33;;;;;;;70.42;43.00;;;;;;;10.58;67.05;99044.33;2128084;82;28731;-63
2021/11/01 21:51:38;;;;;;;72.25;44.63;;;;;;;10.55;67.13;99044.05;2129869;82;27682;-63
2021/11/01 21:57:48;;;;;;;64.20;41.40;;;;;;;10.56;67.18;99041.74;2126796;82;31024;-66
2021/11/01 22:01:05;;;;;;;67.58;41.20;;;;;;;10.60;67.16;99045.05;2119884;83;33042;-62
2021/11/01 22:17:14;;;;;;;73.40;43.33;;;;;;;10.66;67.04;99051.83;2130810;82;34210;-62
2021/11/01 22:20:16;;;;;;;67.08;42.03;;;;;;;10.65;67.03;99044.26;2139431;82;29706;-62
2021/11/01 22:23:30;;;;;;;67.72;41.63;;;;;;;10.65;67.16;99042.92;2126069;82;27734;-65
2021/11/01 22:39:40;;;;;;;77.08;46.37;;;;;;;10.62;67.30;99039.11;2170564;81;27759;-65
2021/11/01 22:42:42;;;;;;;69.92;43.52;;;;;;;10.60;67.35;99035.68;2173580;80;29111;-66
2021/11/01 22:58:43;;;;;;;67.20;41.10;;;;;;;10.59;67.81;99021.95;2084600;83;29126;-66
2021/11/01 23:01:47;;;;;;;70.17;43.63;;;;;;;10.57;67.85;99020.70;2097030;83;31011;-63
2021/11/01 23:04:59;;;;;;;65.28;40.95;;;;;;;10.57;67.96;99023.38;2089866;83;32963;-66
2021/11/01 23:31:42;;;;;;;72.42;46.20;;;;;;;10.47;68.30;99000.90;1868557;93;28799;-67
2021/11/01 23:34:43;;;;;;;72.50;43.75;;;;;;;10.46;68.32;98992.48;1919434;91;31099;-67
2021/11/01 23:37:45;;;;;;;75.17;44.10;;;;;;;10.44;68.38;98985.05;1869204;93;32958;-65
2021/11/01 23:40:48;;;;;;;65.20;43.58;;;;;;;10.42;68.40;98982.48;1901789;91;29794;-67
2021/11/01 23:43:50;;;;;;;70.00;43.15;;;;;;;10.40;68.46;98977.72;1896631;91;27772;-67
2021/11/01 23:46:52;;;;;;;63.42;41.77;;;;;;;10.40;68.50;98971.49;1896792;91;29087;-66
2021/11/01 23:49:53;;;;;;;64.58;42.05;;;;;;;10.38;68.50;98977.40;1903748;91;31454;-66
2021/11/01 23:53:03;;;;;;;67.62;43.17;;;;;;;10.36;68.62;98972.17;1902269;91;33550;-67
2021/11/01 23:55:58;;;;;;;67.27;43.02;;;;;;;10.37;68.62;98967.66;2019039;84;30297;-66
2021/11/01 23:59:00;;;;;;;68.40;42.55;;;;;;;10.38;68.66;98962.67;2034039;85;27685;-66
